createdAt,value
2018-06-22T00:00:17.154Z,20.02
2018-06-22T00:01:17.174Z,19.98
2018-06-22T00:02:17.318Z,19.97
2018-06-22T00:03:17.203Z,20.00
2018-06-22T00:04:17.217Z,19.92
2018-06-22T00:05:17.260Z,20.01
2018-06-22T00:06:17.246Z,19.98
2018-06-22T00:07:17.365Z,19.90
2018-06-22T00:08:17.294Z,19.89
2018-06-22T00:09:17.303Z,19.89
2018-06-22T00:10:17.320Z,19.93
2018-06-22T00:11:17.322Z,19.90
2018-06-22T00:12:17.464Z,19.83
2018-06-22T00:13:17.354Z,19.79
2018-06-22T00:14:17.392Z,19.78
2018-06-22T00:15:17.378Z,19.71
2018-06-22T00:16:17.413Z,19.74
2018-06-22T00:17:17.542Z,19.64
2018-06-22T00:18:17.453Z,19.56
2018-06-22T00:19:17.439Z,19.55
2018-06-22T00:20:17.481Z,19.60
2018-06-22T00:21:17.482Z,19.67
2018-06-22T00:22:17.644Z,19.55
2018-06-22T00:23:17.497Z,19.55
2018-06-22T00:24:17.521Z,19.53
2018-06-22T00:25:17.556Z,19.63
2018-06-22T00:26:17.571Z,19.38
2018-06-22T00:27:17.689Z,19.34
2018-06-22T00:28:17.603Z,19.24
2018-06-22T00:29:17.611Z,19.24
2018-06-22T00:30:17.628Z,19.25
2018-06-22T00:31:17.640Z,19.23
2018-06-22T00:32:17.791Z,19.19
2018-06-22T00:33:17.670Z,19.16
2018-06-22T00:34:17.661Z,19.13
2018-06-22T00:35:17.704Z,19.13
2018-06-22T00:36:17.694Z,19.19
2018-06-22T00:37:17.804Z,19.16
2018-06-22T00:38:17.745Z,19.17
2018-06-22T00:39:17.744Z,19.16
2018-06-22T00:40:17.746Z,19.19
2018-06-22T00:41:17.791Z,19.16
2018-06-22T00:42:17.777Z,19.23
2018-06-22T00:43:17.956Z,19.23
2018-06-22T00:44:17.807Z,19.20
2018-06-22T00:45:17.831Z,19.20
2018-06-22T00:46:17.860Z,19.35
2018-06-22T00:47:17.853Z,19.38
2018-06-22T00:48:17.967Z,19.32
2018-06-22T00:49:17.882Z,19.47
2018-06-22T00:50:17.892Z,19.42
2018-06-22T00:51:17.908Z,19.49
2018-06-22T00:52:17.924Z,19.50
2018-06-22T00:53:18.061Z,19.49
2018-06-22T00:54:17.963Z,19.50
2018-06-22T00:55:17.967Z,19.43
2018-06-22T00:56:18.006Z,19.37
2018-06-22T00:57:18.024Z,19.28
2018-06-22T00:58:18.111Z,19.25
2018-06-22T00:59:18.040Z,19.24
2018-06-22T01:00:18.073Z,19.23
2018-06-22T01:01:18.056Z,19.27
2018-06-22T01:02:18.075Z,19.23
2018-06-22T01:03:18.187Z,19.30
2018-06-22T01:04:18.097Z,19.30
2018-06-22T01:05:18.115Z,19.35
2018-06-22T01:06:18.134Z,19.43
2018-06-22T01:07:18.147Z,19.55
2018-06-22T01:08:18.323Z,19.56
2018-06-22T01:09:18.194Z,19.67
2018-06-22T01:10:18.184Z,19.68
2018-06-22T01:11:18.198Z,19.65
2018-06-22T01:12:18.243Z,19.65
2018-06-22T01:13:18.359Z,19.67
2018-06-22T01:14:18.260Z,19.65
2018-06-22T01:15:18.265Z,19.79
2018-06-22T01:16:18.303Z,19.79
2018-06-22T01:17:18.284Z,19.68
2018-06-22T01:18:18.408Z,19.63
2018-06-22T01:19:18.341Z,19.60
2018-06-22T01:20:18.343Z,19.57
2018-06-22T01:21:18.351Z,19.56
2018-06-22T01:22:18.391Z,19.64
2018-06-22T01:23:18.507Z,19.56
2018-06-22T01:24:18.393Z,19.56
2018-06-22T01:25:18.431Z,19.63
2018-06-22T01:26:18.419Z,19.63
2018-06-22T01:27:18.460Z,19.57
2018-06-22T01:28:18.598Z,19.53
2018-06-22T01:29:18.493Z,19.55
2018-06-22T01:30:18.478Z,19.52
2018-06-22T01:31:18.497Z,19.55
2018-06-22T01:32:18.536Z,19.57
2018-06-22T01:33:18.700Z,19.55
2018-06-22T01:34:18.546Z,19.60
2018-06-22T01:35:18.558Z,19.55
2018-06-22T01:36:18.592Z,19.52
2018-06-22T01:37:18.606Z,19.64
2018-06-22T01:38:18.711Z,19.65
2018-06-22T01:39:18.612Z,19.70
2018-06-22T01:40:18.653Z,19.75
2018-06-22T01:41:18.656Z,19.71
2018-06-22T01:42:18.682Z,19.71
2018-06-22T01:43:18.850Z,19.72
2018-06-22T01:44:18.687Z,19.72
2018-06-22T01:45:18.699Z,19.74
2018-06-22T01:46:18.739Z,19.87
2018-06-22T01:47:18.739Z,19.80
2018-06-22T01:48:18.769Z,19.83
2018-06-22T01:49:18.937Z,19.80
2018-06-22T01:50:18.781Z,19.90
2018-06-22T01:51:18.803Z,19.89
2018-06-22T01:52:18.802Z,19.87
2018-06-22T01:53:18.845Z,19.95
2018-06-22T01:54:18.957Z,19.95
2018-06-22T01:55:18.852Z,19.92
2018-06-22T01:56:18.888Z,19.78
2018-06-22T01:57:18.880Z,19.87
2018-06-22T01:58:18.887Z,19.79
2018-06-22T01:59:19.086Z,19.82
2018-06-22T02:00:18.925Z,19.83
2018-06-22T02:01:18.945Z,19.83
2018-06-22T02:02:18.971Z,19.75
2018-06-22T02:03:18.966Z,19.72
2018-06-22T02:04:19.134Z,19.75
2018-06-22T02:05:18.998Z,19.78
2018-06-22T02:06:19.038Z,19.75
2018-06-22T02:07:19.050Z,19.72
2018-06-22T02:08:19.047Z,19.64
2018-06-22T02:09:19.211Z,19.52
2018-06-22T02:10:19.083Z,19.56
2018-06-22T02:11:19.111Z,19.61
2018-06-22T02:12:19.126Z,19.50
2018-06-22T02:13:19.128Z,19.50
2018-06-22T02:14:19.240Z,19.47
2018-06-22T02:15:19.167Z,19.49
2018-06-22T02:16:19.185Z,19.34
2018-06-22T02:17:19.167Z,19.52
2018-06-22T02:18:19.213Z,19.47
2018-06-22T02:19:19.324Z,19.52
2018-06-22T02:20:19.248Z,19.55
2018-06-22T02:21:19.232Z,19.53
2018-06-22T02:22:19.244Z,19.50
2018-06-22T02:23:19.344Z,19.52
2018-06-22T02:24:19.461Z,19.64
2018-06-22T02:25:19.357Z,19.61
2018-06-22T02:26:19.354Z,19.65
2018-06-22T02:27:19.369Z,19.63
2018-06-22T02:28:19.384Z,19.75
2018-06-22T02:29:19.605Z,19.70
2018-06-22T02:30:19.417Z,19.71
2018-06-22T02:31:19.453Z,19.75
2018-06-22T02:32:19.424Z,19.74
2018-06-22T02:33:19.440Z,19.78
2018-06-22T02:34:19.596Z,19.72
2018-06-22T02:35:19.471Z,19.82
2018-06-22T02:36:19.453Z,19.87
2018-06-22T02:37:19.468Z,19.82
2018-06-22T02:38:19.478Z,19.82
2018-06-22T02:39:19.604Z,19.82
2018-06-22T02:40:19.517Z,19.80
2018-06-22T02:41:19.527Z,19.83
2018-06-22T02:42:19.565Z,19.86
2018-06-22T02:43:19.581Z,19.80
2018-06-22T02:44:19.710Z,19.82
2018-06-22T02:45:19.589Z,19.82
2018-06-22T02:46:19.624Z,19.90
2018-06-22T02:47:19.616Z,19.86
2018-06-22T02:48:19.629Z,19.85
2018-06-22T02:49:19.796Z,19.86
2018-06-22T02:50:19.654Z,19.83
2018-06-22T02:51:19.674Z,19.89
2018-06-22T02:52:19.720Z,19.82
2018-06-22T02:53:19.730Z,19.93
2018-06-22T02:54:19.741Z,19.93
2018-06-22T02:55:19.886Z,19.90
2018-06-22T02:56:19.744Z,19.97
2018-06-22T02:57:19.763Z,19.90
2018-06-22T02:58:19.772Z,19.90
2018-06-22T02:59:19.789Z,19.92
2018-06-22T03:00:19.932Z,19.92
2018-06-22T03:01:19.822Z,19.89
2018-06-22T03:02:19.834Z,19.90
2018-06-22T03:03:19.880Z,19.83
2018-06-22T03:04:19.867Z,19.86
2018-06-22T03:05:20.030Z,19.82
2018-06-22T03:06:19.921Z,19.74
2018-06-22T03:07:19.933Z,19.65
2018-06-22T03:08:19.949Z,19.60
2018-06-22T03:09:19.962Z,19.61
2018-06-22T03:10:20.074Z,19.49
2018-06-22T03:11:19.970Z,19.61
2018-06-22T03:12:20.007Z,19.42
2018-06-22T03:13:19.996Z,19.40
2018-06-22T03:14:20.035Z,19.32
2018-06-22T03:15:20.124Z,19.32
2018-06-22T03:16:20.042Z,19.31
2018-06-22T03:17:20.061Z,19.32
2018-06-22T03:18:20.092Z,19.24
2018-06-22T03:19:20.111Z,19.24
2018-06-22T03:20:20.225Z,19.17
2018-06-22T03:21:20.140Z,19.13
2018-06-22T03:22:20.150Z,19.12
2018-06-22T03:23:20.165Z,19.15
2018-06-22T03:24:20.157Z,19.02
2018-06-22T03:25:20.320Z,18.99
2018-06-22T03:26:20.185Z,18.91
2018-06-22T03:27:20.203Z,18.94
2018-06-22T03:28:20.207Z,18.87
2018-06-22T03:29:20.227Z,18.76
2018-06-22T03:30:20.345Z,18.76
2018-06-22T03:31:20.283Z,18.76
2018-06-22T03:32:20.272Z,18.68
2018-06-22T03:33:20.285Z,18.68
2018-06-22T03:34:20.306Z,18.61
2018-06-22T03:35:20.414Z,18.63
2018-06-22T03:36:20.341Z,18.60
2018-06-22T03:37:20.343Z,18.51
2018-06-22T03:38:20.361Z,18.47
2018-06-22T03:39:20.381Z,18.51
2018-06-22T03:40:20.538Z,18.49
2018-06-22T03:41:20.397Z,18.36
2018-06-22T03:42:20.413Z,18.41
2018-06-22T03:43:20.441Z,18.39
2018-06-22T03:44:20.437Z,18.38
2018-06-22T03:45:20.580Z,18.32
2018-06-22T03:46:20.466Z,18.27
2018-06-22T03:47:20.491Z,18.23
2018-06-22T03:48:20.508Z,18.19
2018-06-22T03:49:20.509Z,18.19
2018-06-22T03:50:20.622Z,18.08
2018-06-22T03:51:20.568Z,18.10
2018-06-22T03:52:20.553Z,17.96
2018-06-22T03:53:20.568Z,17.98
2018-06-22T03:54:20.581Z,17.96
2018-06-22T03:55:20.700Z,17.98
2018-06-22T03:56:20.613Z,17.92
2018-06-22T03:57:20.621Z,17.99
2018-06-22T03:58:20.635Z,17.87
2018-06-22T03:59:20.654Z,17.83
2018-06-22T04:00:20.814Z,17.83
2018-06-22T04:01:20.675Z,17.87
2018-06-22T04:02:20.688Z,17.84
2018-06-22T04:03:20.731Z,17.84
2018-06-22T04:04:20.717Z,17.92
2018-06-22T04:05:20.756Z,17.90
2018-06-22T04:06:20.917Z,17.87
2018-06-22T04:07:20.786Z,17.92
2018-06-22T04:08:20.796Z,17.81
2018-06-22T04:09:20.814Z,17.86
2018-06-22T04:10:20.806Z,17.92
2018-06-22T04:11:20.960Z,17.88
2018-06-22T04:12:20.829Z,17.83
2018-06-22T04:13:20.841Z,17.71
2018-06-22T04:14:20.851Z,17.77
2018-06-22T04:15:20.898Z,17.79
2018-06-22T04:16:20.996Z,17.83
2018-06-22T04:17:20.907Z,17.80
2018-06-22T04:18:20.933Z,17.87
2018-06-22T04:19:20.947Z,17.80
2018-06-22T04:20:20.950Z,17.84
2018-06-22T04:21:21.043Z,17.90
2018-06-22T04:22:20.958Z,17.88
2018-06-22T04:23:21.002Z,17.88
2018-06-22T04:24:21.057Z,17.90
2018-06-22T04:25:21.024Z,17.84
2018-06-22T04:26:21.193Z,17.80
2018-06-22T04:27:21.026Z,17.84
2018-06-22T04:28:21.068Z,17.87
2018-06-22T04:29:21.079Z,17.94
2018-06-22T04:30:21.070Z,17.88
2018-06-22T04:31:21.205Z,17.92
2018-06-22T04:32:21.123Z,17.87
2018-06-22T04:33:21.114Z,17.88
2018-06-22T04:34:21.121Z,17.84
2018-06-22T04:35:21.137Z,17.83
2018-06-22T04:36:21.300Z,17.77
2018-06-22T04:37:21.162Z,17.66
2018-06-22T04:38:21.180Z,17.63
2018-06-22T04:39:21.192Z,17.66
2018-06-22T04:40:21.211Z,17.74
2018-06-22T04:41:21.320Z,17.76
2018-06-22T04:42:21.238Z,17.76
2018-06-22T04:43:21.244Z,17.77
2018-06-22T04:44:21.282Z,17.74
2018-06-22T04:45:21.294Z,17.69
2018-06-22T04:46:21.430Z,17.63
2018-06-22T04:47:21.328Z,17.57
2018-06-22T04:48:21.335Z,17.55
2018-06-22T04:49:21.321Z,17.58
2018-06-22T04:50:21.362Z,17.50
2018-06-22T04:51:21.502Z,17.57
2018-06-22T04:52:21.395Z,17.50
2018-06-22T04:53:21.407Z,17.50
2018-06-22T04:54:21.388Z,17.47
2018-06-22T04:55:21.426Z,17.49
2018-06-22T04:56:21.584Z,17.52
2018-06-22T04:57:21.429Z,17.52
2018-06-22T04:58:21.469Z,17.54
2018-06-22T04:59:21.457Z,17.54
2018-06-22T05:00:21.481Z,17.54
2018-06-22T05:01:21.584Z,17.40
2018-06-22T05:02:21.499Z,17.36
2018-06-22T05:03:21.511Z,17.30
2018-06-22T05:04:21.549Z,17.30
2018-06-22T05:05:21.534Z,17.32
2018-06-22T05:06:21.646Z,17.22
2018-06-22T05:07:21.564Z,17.21
2018-06-22T05:08:21.599Z,17.28
2018-06-22T05:09:21.604Z,17.22
2018-06-22T05:10:21.618Z,17.22
2018-06-22T05:11:21.743Z,17.24
2018-06-22T05:12:21.664Z,17.21
2018-06-22T05:13:21.640Z,17.17
2018-06-22T05:14:21.663Z,17.10
2018-06-22T05:15:21.665Z,17.05
2018-06-22T05:16:21.784Z,17.07
2018-06-22T05:17:21.692Z,16.97
2018-06-22T05:18:21.730Z,16.97
2018-06-22T05:19:21.722Z,16.97
2018-06-22T05:20:21.764Z,16.99
2018-06-22T05:21:21.858Z,16.99
2018-06-22T05:22:21.756Z,16.97
2018-06-22T05:23:21.775Z,16.97
2018-06-22T05:24:21.795Z,17.02
2018-06-22T05:25:21.805Z,16.91
2018-06-22T05:26:21.919Z,16.92
2018-06-22T05:27:21.824Z,16.99
2018-06-22T05:28:21.847Z,16.90
2018-06-22T05:29:21.845Z,16.90
2018-06-22T05:30:21.917Z,16.91
2018-06-22T05:31:22.001Z,16.90
2018-06-22T05:32:21.888Z,16.84
2018-06-22T05:33:21.916Z,16.87
2018-06-22T05:34:21.918Z,16.91
2018-06-22T05:35:21.958Z,16.90
2018-06-22T05:36:22.073Z,16.76
2018-06-22T05:37:21.956Z,16.67
2018-06-22T05:38:21.995Z,16.74
2018-06-22T05:39:21.981Z,16.76
2018-06-22T05:40:21.990Z,16.69
2018-06-22T05:41:22.203Z,16.72
2018-06-22T05:42:22.020Z,16.63
2018-06-22T05:43:22.060Z,16.62
2018-06-22T05:44:22.071Z,16.66
2018-06-22T05:45:22.068Z,16.63
2018-06-22T05:46:22.176Z,16.66
2018-06-22T05:47:22.094Z,16.58
2018-06-22T05:48:22.106Z,16.48
2018-06-22T05:49:22.107Z,16.54
2018-06-22T05:50:22.152Z,16.52
2018-06-22T05:51:22.308Z,16.51
2018-06-22T05:52:22.176Z,16.49
2018-06-22T05:53:22.189Z,16.51
2018-06-22T05:54:22.199Z,16.49
2018-06-22T05:55:22.209Z,16.51
2018-06-22T05:56:22.329Z,16.51
2018-06-22T05:57:22.213Z,16.45
2018-06-22T05:58:22.229Z,16.47
2018-06-22T05:59:22.243Z,16.45
2018-06-22T06:00:22.276Z,16.42
2018-06-22T06:01:22.363Z,16.33
2018-06-22T06:02:22.273Z,16.34
2018-06-22T06:03:22.311Z,16.29
2018-06-22T06:04:22.301Z,16.32
2018-06-22T06:05:22.339Z,16.17
2018-06-22T06:06:22.499Z,16.21
2018-06-22T06:07:22.350Z,16.16
2018-06-22T06:08:22.360Z,16.13
2018-06-22T06:09:22.387Z,16.11
2018-06-22T06:10:22.374Z,16.11
2018-06-22T06:11:22.513Z,16.13
2018-06-22T06:12:22.431Z,16.04
2018-06-22T06:13:22.417Z,16.00
2018-06-22T06:14:22.457Z,16.00
2018-06-22T06:15:22.448Z,15.92
2018-06-22T06:16:22.554Z,15.81
2018-06-22T06:17:22.491Z,15.91
2018-06-22T06:18:22.478Z,15.84
2018-06-22T06:19:22.516Z,15.89
2018-06-22T06:20:22.500Z,15.88
2018-06-22T06:21:22.614Z,15.84
2018-06-22T06:22:22.524Z,15.84
2018-06-22T06:23:22.536Z,15.81
2018-06-22T06:24:22.549Z,15.89
2018-06-22T06:25:22.576Z,15.86
2018-06-22T06:26:22.699Z,15.91
2018-06-22T06:27:22.733Z,15.91
2018-06-22T06:28:22.598Z,15.91
2018-06-22T06:29:22.640Z,15.81
2018-06-22T06:30:22.636Z,15.84
2018-06-22T06:31:22.827Z,15.89
2018-06-22T06:32:22.676Z,15.88
2018-06-22T06:33:22.663Z,15.92
2018-06-22T06:34:22.676Z,15.83
2018-06-22T06:35:22.685Z,15.91
2018-06-22T06:36:22.707Z,15.88
2018-06-22T06:37:22.813Z,15.86
2018-06-22T06:38:22.746Z,15.84
2018-06-22T06:39:22.754Z,15.91
2018-06-22T06:40:22.754Z,15.83
2018-06-22T06:41:22.759Z,15.89
2018-06-22T06:42:22.922Z,15.86
2018-06-22T06:43:22.809Z,15.89
2018-06-22T06:44:22.797Z,15.88
2018-06-22T06:45:22.816Z,15.88
2018-06-22T06:46:22.821Z,15.84
2018-06-22T06:47:22.938Z,15.78
2018-06-22T06:48:22.866Z,15.84
2018-06-22T06:49:22.859Z,15.80
2018-06-22T06:50:22.898Z,15.75
2018-06-22T06:51:22.882Z,15.71
2018-06-22T06:52:23.024Z,15.68
2018-06-22T06:53:22.903Z,15.81
2018-06-22T06:54:22.923Z,15.83
2018-06-22T06:55:22.932Z,15.74
2018-06-22T06:56:22.943Z,15.75
2018-06-22T06:57:23.056Z,15.77
2018-06-22T06:58:22.993Z,15.71
2018-06-22T06:59:23.009Z,15.81
2018-06-22T07:00:22.993Z,15.80
2018-06-22T07:01:23.008Z,15.88
2018-06-22T07:02:23.200Z,15.81
2018-06-22T07:03:23.029Z,15.89
2018-06-22T07:04:23.045Z,15.86
2018-06-22T07:05:23.080Z,15.93
2018-06-22T07:06:23.096Z,15.96
2018-06-22T07:07:23.231Z,16.04
2018-06-22T07:08:23.141Z,16.04
2018-06-22T07:09:23.128Z,16.00
2018-06-22T07:10:23.114Z,16.04
2018-06-22T07:11:23.126Z,15.95
2018-06-22T07:12:23.393Z,15.95
2018-06-22T07:13:23.155Z,15.98
2018-06-22T07:14:23.248Z,16.08
2018-06-22T07:15:23.183Z,16.04
2018-06-22T07:16:23.196Z,16.04
2018-06-22T07:17:23.327Z,15.96
2018-06-22T07:18:23.228Z,16.11
2018-06-22T07:19:23.227Z,16.02
2018-06-22T07:20:23.240Z,15.99
2018-06-22T07:21:23.265Z,16.08
2018-06-22T07:22:23.412Z,16.11
2018-06-22T07:23:23.310Z,16.08
2018-06-22T07:24:23.296Z,16.02
2018-06-22T07:25:23.299Z,16.06
2018-06-22T07:26:23.335Z,16.02
2018-06-22T07:27:23.452Z,16.10
2018-06-22T07:28:23.343Z,16.13
2018-06-22T07:29:23.349Z,16.06
2018-06-22T07:30:23.386Z,16.10
2018-06-22T07:31:23.383Z,16.06
2018-06-22T07:32:23.487Z,16.10
2018-06-22T07:33:23.399Z,15.99
2018-06-22T07:34:23.410Z,16.11
2018-06-22T07:35:23.433Z,16.11
2018-06-22T07:36:23.435Z,15.95
2018-06-22T07:37:23.624Z,16.00
2018-06-22T07:38:23.468Z,16.04
2018-06-22T07:39:23.499Z,15.99
2018-06-22T07:40:23.499Z,15.95
2018-06-22T07:41:23.523Z,16.00
2018-06-22T07:42:23.684Z,15.99
2018-06-22T07:43:23.517Z,16.00
2018-06-22T07:44:23.537Z,16.02
2018-06-22T07:45:23.569Z,15.91
2018-06-22T07:46:23.582Z,16.00
2018-06-22T07:47:23.666Z,15.92
2018-06-22T07:48:23.581Z,15.96
2018-06-22T07:49:23.594Z,15.99
2018-06-22T07:50:23.629Z,15.93
2018-06-22T07:51:23.615Z,16.07
2018-06-22T07:52:23.782Z,16.00
2018-06-22T07:53:23.640Z,15.95
2018-06-22T07:54:23.660Z,16.08
2018-06-22T07:55:23.692Z,15.98
2018-06-22T07:56:23.706Z,15.99
2018-06-22T07:57:23.844Z,16.02
2018-06-22T07:58:23.729Z,16.02
2018-06-22T07:59:23.740Z,15.93
2018-06-22T08:00:23.732Z,15.95
2018-06-22T08:01:23.767Z,15.93
2018-06-22T08:02:23.852Z,15.92
2018-06-22T08:03:23.789Z,15.86
2018-06-22T08:04:23.786Z,15.91
2018-06-22T08:05:23.816Z,15.89
2018-06-22T08:06:23.797Z,15.83
2018-06-22T08:07:23.910Z,15.86
2018-06-22T08:08:23.850Z,15.89
2018-06-22T08:09:23.860Z,15.92
2018-06-22T08:10:23.849Z,15.75
2018-06-22T08:11:23.858Z,15.75
2018-06-22T08:12:24.024Z,15.77
2018-06-22T08:13:23.885Z,15.75
2018-06-22T08:14:23.902Z,15.77
2018-06-22T08:15:23.910Z,15.74
2018-06-22T08:16:23.952Z,15.78
2018-06-22T08:17:24.035Z,15.78
2018-06-22T08:18:23.971Z,15.78
2018-06-22T08:19:23.981Z,15.75
2018-06-22T08:20:23.970Z,15.63
2018-06-22T08:21:23.979Z,15.67
2018-06-22T08:22:24.090Z,15.68
2018-06-22T08:23:24.030Z,15.70
2018-06-22T08:24:24.043Z,15.74
2018-06-22T08:25:24.057Z,15.65
2018-06-22T08:26:24.039Z,15.68
2018-06-22T08:27:24.200Z,15.70
2018-06-22T08:28:24.076Z,15.65
2018-06-22T08:29:24.103Z,15.68
2018-06-22T08:30:24.096Z,15.74
2018-06-22T08:31:24.099Z,15.77
2018-06-22T08:32:24.266Z,15.78
2018-06-22T08:33:24.140Z,15.74
2018-06-22T08:34:24.140Z,15.77
2018-06-22T08:35:24.180Z,15.70
2018-06-22T08:36:24.160Z,15.68
2018-06-22T08:37:24.271Z,15.73
2018-06-22T08:38:24.187Z,15.65
2018-06-22T08:39:24.194Z,15.75
2018-06-22T08:40:24.207Z,15.75
2018-06-22T08:41:24.220Z,15.63
2018-06-22T08:42:24.332Z,15.67
2018-06-22T08:43:24.255Z,15.56
2018-06-22T11:36:44.925Z,20.60
2018-06-22T12:41:17.014Z,22.24
2018-06-22T14:11:43.080Z,25.57
2018-06-22T14:27:43.443Z,27.09
2018-06-22T14:49:41.938Z,27.08
2018-06-22T15:15:30.839Z,28.75
2018-06-22T15:28:56.397Z,28.08
2018-06-22T16:21:52.649Z,28.72
2018-06-22T17:16:22.466Z,26.72
2018-06-22T17:46:12.191Z,26.44
2018-06-22T17:50:06.837Z,26.61
2018-06-22T18:18:50.839Z,26.00
2018-06-22T18:51:00.193Z,25.23
2018-06-22T19:17:32.468Z,24.82
2018-06-22T19:44:14.756Z,23.28
2018-06-22T19:52:23.999Z,23.03
2018-06-22T20:31:36.387Z,21.82
2018-06-22T20:32:33.477Z,21.78
2018-06-22T20:33:33.520Z,21.74
2018-06-22T20:34:33.537Z,21.76
2018-06-22T20:48:19.255Z,21.52
2018-06-22T21:02:06.499Z,21.27
2018-06-22T21:05:55.887Z,21.15
2018-06-22T21:42:39.060Z,20.86
2018-06-22T23:46:48.793Z,19.93
2018-06-22T23:49:57.680Z,19.95
2018-06-22T23:51:39.234Z,19.79
2018-06-22T23:54:06.738Z,19.82
2018-06-22T23:57:58.597Z,19.83
